createdAt,value
2022-08-19T00:04:47.954Z,36.50
2022-08-19T00:09:52.597Z,36.60
2022-08-19T00:14:56.202Z,36.80
2022-08-19T00:19:59.390Z,36.70
2022-08-19T00:25:04.401Z,36.80
2022-08-19T00:30:11.138Z,37.10
2022-08-19T00:35:14.357Z,37.20
2022-08-19T00:40:20.372Z,37.20
2022-08-19T00:45:27.424Z,37.50
2022-08-19T00:50:31.047Z,37.70
2022-08-19T00:55:36.028Z,37.40
2022-08-19T01:00:39.465Z,37.70
2022-08-19T01:05:44.412Z,37.60
2022-08-19T01:10:52.452Z,37.80
2022-08-19T01:15:59.555Z,38.20
2022-08-19T01:21:08.138Z,38.10
2022-08-19T01:26:15.998Z,38.30
2022-08-19T01:31:26.734Z,38.40
2022-08-19T01:36:33.992Z,38.20
2022-08-19T01:41:38.819Z,38.20
2022-08-19T01:46:42.561Z,38.30
2022-08-19T01:51:45.779Z,38.10
2022-08-19T01:56:50.723Z,38.10
2022-08-19T02:01:54.336Z,38.10
2022-08-19T02:06:57.499Z,38.00
2022-08-19T02:12:02.554Z,38.10
2022-08-19T02:17:06.497Z,38.20
2022-08-19T02:22:09.696Z,37.90
2022-08-19T02:27:14.229Z,38.10
2022-08-19T02:32:17.893Z,38.00
2022-08-19T02:37:38.528Z,38.00
2022-08-19T02:42:43.785Z,37.90
2022-08-19T02:47:47.919Z,38.00
2022-08-19T02:52:51.302Z,38.20
2022-08-19T02:57:55.893Z,38.10
2022-08-19T03:02:59.801Z,38.40
2022-08-19T03:08:03.164Z,38.50
2022-08-19T03:13:07.703Z,38.60
2022-08-19T03:18:11.273Z,39.50
2022-08-19T03:23:16.698Z,38.80
2022-08-19T03:28:21.627Z,38.80
2022-08-19T03:33:28.669Z,39.10
2022-08-19T03:38:32.596Z,39.00
2022-08-19T03:43:38.525Z,39.10
2022-08-19T03:48:43.657Z,39.20
2022-08-19T03:53:46.809Z,39.10
2022-08-19T03:58:51.343Z,39.10
2022-08-19T04:03:55.126Z,39.20
2022-08-19T04:09:01.706Z,39.20
2022-08-19T04:14:06.226Z,39.20
2022-08-19T04:19:09.465Z,39.30
2022-08-19T04:24:13.235Z,39.20
2022-08-19T04:29:22.347Z,39.20
2022-08-19T04:34:27.749Z,39.60
2022-08-19T04:39:52.408Z,39.50
2022-08-19T04:45:05.404Z,39.80
2022-08-19T04:50:13.116Z,39.90
2022-08-19T04:55:16.333Z,39.90
2022-08-19T05:00:21.081Z,40.10
2022-08-19T05:05:24.528Z,40.20
2022-08-19T05:10:27.954Z,40.20
2022-08-19T05:15:32.902Z,40.30
2022-08-19T05:20:53.445Z,40.60
2022-08-19T05:25:56.603Z,40.50
2022-08-19T05:31:01.133Z,40.60
2022-08-19T05:36:05.581Z,40.90
2022-08-19T05:41:10.557Z,40.80
2022-08-19T05:46:27.642Z,40.90
2022-08-19T05:51:31.393Z,41.70
2022-08-19T05:56:37.677Z,40.90
2022-08-19T06:01:45.360Z,41.20
2022-08-19T06:06:49.688Z,41.70
2022-08-19T06:11:56.036Z,41.40
2022-08-19T06:17:06.871Z,42.50
2022-08-19T06:22:12.951Z,41.90
2022-08-19T06:27:16.990Z,41.80
2022-08-19T06:32:21.683Z,41.80
2022-08-19T06:37:24.918Z,42.00
2022-08-19T06:42:28.121Z,41.90
2022-08-19T06:47:33.511Z,41.90
2022-08-19T06:52:38.427Z,42.10
2022-08-19T06:57:41.734Z,41.90
2022-08-19T07:02:52.140Z,41.90
2022-08-19T07:08:04.716Z,41.90
2022-08-19T07:13:09.242Z,42.50
2022-08-19T07:18:13.850Z,41.80
2022-08-19T07:23:17.005Z,41.80
2022-08-19T07:28:24.103Z,41.60
2022-08-19T07:33:31.215Z,41.60
2022-08-19T07:38:36.584Z,41.60
2022-08-19T07:43:40.506Z,41.50
2022-08-19T07:48:47.742Z,41.40
2022-08-19T07:53:52.009Z,41.40
2022-08-19T08:04:18.643Z,41.20
2022-08-19T08:09:25.071Z,40.90
2022-08-19T08:14:34.977Z,40.80
2022-08-19T08:19:40.061Z,40.70
2022-08-19T08:24:43.253Z,40.60
2022-08-19T08:29:46.551Z,40.40
2022-08-19T08:34:52.379Z,40.20
2022-08-19T08:39:56.494Z,39.80
2022-08-19T08:45:02.337Z,39.70
2022-08-19T08:50:10.305Z,39.60
2022-08-19T08:55:17.304Z,39.30
2022-08-19T09:00:27.911Z,39.30
2022-08-19T09:05:48.307Z,39.20
2022-08-19T09:10:55.730Z,39.00
2022-08-19T09:16:07.668Z,39.10
2022-08-19T09:21:12.628Z,38.90
2022-08-19T09:26:19.962Z,38.70
2022-08-19T09:31:25.197Z,38.60
2022-08-19T09:36:34.797Z,38.60
2022-08-19T09:41:38.399Z,38.40
2022-08-19T09:46:44.206Z,38.00
2022-08-19T09:51:52.142Z,37.70
2022-08-19T09:56:56.732Z,37.20
2022-08-19T10:02:03.896Z,37.10
2022-08-19T10:07:15.656Z,37.00
2022-08-19T10:12:20.309Z,36.50
2022-08-19T10:17:27.498Z,36.10
2022-08-19T10:22:38.764Z,35.70
2022-08-19T10:27:44.313Z,35.30
2022-08-19T10:32:51.513Z,35.00
2022-08-19T10:38:01.945Z,34.80
2022-08-19T10:43:05.583Z,34.60
2022-08-19T10:48:08.793Z,34.60
2022-08-19T10:53:21.029Z,34.50
2022-08-19T10:58:27.131Z,34.50
2022-08-19T11:03:31.296Z,34.70
2022-08-19T11:08:38.575Z,34.90
2022-08-19T11:13:45.340Z,34.90
2022-08-19T11:18:50.651Z,35.10
2022-08-19T11:23:58.480Z,35.00
2022-08-19T11:29:02.562Z,35.80
2022-08-19T11:34:08.096Z,35.10
2022-08-19T11:39:14.606Z,35.10
2022-08-19T11:44:18.056Z,36.50
2022-08-19T11:49:22.237Z,35.60
2022-08-19T11:54:26.858Z,36.00
2022-08-19T11:59:30.322Z,35.30
2022-08-19T12:04:33.480Z,35.40
2022-08-19T12:09:38.687Z,35.30
2022-08-19T12:14:47.566Z,35.10
2022-08-19T12:19:50.954Z,34.90
2022-08-19T12:24:55.951Z,34.50
2022-08-19T12:29:59.395Z,34.40
2022-08-19T12:35:03.008Z,34.60
2022-08-19T12:40:08.867Z,34.70
2022-08-19T12:45:13.111Z,34.50
2022-08-19T12:50:16.285Z,34.30
2022-08-19T12:55:21.459Z,34.10
2022-08-19T13:00:24.956Z,33.60
2022-08-19T13:05:30.791Z,33.90
2022-08-19T13:10:37.183Z,33.80
2022-08-19T13:15:44.005Z,33.50
2022-08-19T13:20:52.779Z,33.50
2022-08-19T13:26:03.144Z,33.60
2022-08-19T13:31:24.367Z,33.50
2022-08-19T13:36:27.813Z,33.50
2022-08-19T13:41:32.457Z,33.60
2022-08-19T13:46:35.967Z,33.80
2022-08-19T13:51:40.824Z,34.10
2022-08-19T13:56:48.007Z,34.40
2022-08-19T14:01:51.273Z,34.50
2022-08-19T14:06:54.452Z,34.50
2022-08-19T14:11:59.356Z,34.60
2022-08-19T14:17:02.509Z,34.80
2022-08-19T14:22:06.430Z,34.80
2022-08-19T14:27:10.970Z,34.70
2022-08-19T14:32:16.896Z,34.90
2022-08-19T14:37:20.483Z,35.10
2022-08-19T14:42:25.615Z,35.90
2022-08-19T14:47:29.312Z,35.20
2022-08-19T14:52:36.180Z,35.00
2022-08-19T14:57:42.758Z,34.90
2022-08-19T15:02:46.251Z,34.60
2022-08-19T15:07:49.852Z,34.60
2022-08-19T15:12:55.681Z,34.30
2022-08-19T15:18:03.546Z,34.30
2022-08-19T15:23:07.299Z,34.40
2022-08-19T15:28:12.887Z,34.30
2022-08-19T15:33:18.538Z,34.30
2022-08-19T15:38:23.866Z,34.20
2022-08-19T15:43:28.621Z,34.20
2022-08-19T15:48:31.918Z,34.20
2022-08-19T15:53:35.240Z,34.30
2022-08-19T15:58:57.965Z,34.30
2022-08-19T16:04:19.528Z,34.40
2022-08-19T16:09:27.760Z,34.40
2022-08-19T16:14:35.220Z,34.40
2022-08-19T16:19:38.923Z,34.30
2022-08-19T16:24:42.237Z,34.30
2022-08-19T16:29:46.883Z,34.30
2022-08-19T16:34:50.793Z,34.10
2022-08-19T16:39:54.435Z,33.90
2022-08-19T16:44:59.122Z,33.90
2022-08-19T16:50:02.303Z,33.90
2022-08-19T16:55:08.523Z,33.90
2022-08-19T17:00:14.923Z,33.90
2022-08-19T17:05:18.928Z,33.90
2022-08-19T17:10:22.145Z,33.90
2022-08-19T17:15:26.841Z,33.90
2022-08-19T17:20:30.034Z,34.10
2022-08-19T17:25:33.930Z,34.00
2022-08-19T17:30:38.648Z,34.20
2022-08-19T17:35:43.947Z,34.30
2022-08-19T17:40:47.852Z,34.40
2022-08-19T17:45:52.374Z,34.30
2022-08-19T17:50:55.511Z,34.30
2022-08-19T17:55:59.019Z,34.30
2022-08-19T18:01:03.985Z,34.20
2022-08-19T18:06:09.744Z,34.20
2022-08-19T18:11:13.417Z,34.30
2022-08-19T18:16:18.899Z,34.40
2022-08-19T18:21:22.521Z,34.60
2022-08-19T18:26:26.007Z,34.60
2022-08-19T18:31:30.588Z,34.90
2022-08-19T18:36:53.061Z,35.00
2022-08-19T18:42:15.015Z,35.20
2022-08-19T18:47:37.119Z,35.20
2022-08-19T18:52:40.778Z,35.40
2022-08-19T18:57:44.013Z,35.60
2022-08-19T19:02:48.723Z,35.70
2022-08-19T19:07:53.320Z,35.80
2022-08-19T19:12:57.088Z,35.80
2022-08-19T19:18:01.932Z,36.40
2022-08-19T19:23:05.730Z,36.70
2022-08-19T19:28:10.099Z,37.10
2022-08-19T19:33:19.431Z,37.20
2022-08-19T19:38:22.822Z,37.50
2022-08-19T19:43:26.583Z,37.50
2022-08-19T19:48:31.161Z,37.40
2022-08-19T19:53:34.789Z,37.70
2022-08-19T19:58:38.170Z,37.90
2022-08-19T20:03:43.854Z,37.70
2022-08-19T20:09:04.776Z,38.10
2022-08-19T20:14:12.614Z,38.40
2022-08-19T20:19:19.929Z,38.60
2022-08-19T20:24:26.017Z,38.90
2022-08-19T20:29:40.101Z,39.10
2022-08-19T20:34:49.211Z,39.00
2022-08-19T20:39:52.574Z,39.30
2022-08-19T20:44:55.856Z,39.40
2022-08-19T20:50:00.407Z,40.40
2022-08-19T20:55:03.605Z,40.00
2022-08-19T21:00:10.657Z,39.90
2022-08-19T21:05:15.539Z,40.20
2022-08-19T21:10:18.956Z,40.60
2022-08-19T21:15:22.214Z,40.60
2022-08-19T21:20:26.896Z,40.80
2022-08-19T21:25:30.436Z,40.90
2022-08-19T21:30:34.103Z,40.80
2022-08-19T21:35:38.702Z,41.00
2022-08-19T21:40:42.017Z,41.20
2022-08-19T21:45:45.440Z,41.20
2022-08-19T21:50:50.981Z,41.20
2022-08-19T21:55:54.236Z,41.20
2022-08-19T22:00:57.788Z,41.10
2022-08-19T22:06:02.949Z,40.90
2022-08-19T22:11:06.508Z,41.00
2022-08-19T22:16:10.201Z,40.80
2022-08-19T22:21:15.273Z,40.90
2022-08-19T22:26:23.397Z,40.90
2022-08-19T22:31:26.601Z,41.00
2022-08-19T22:36:32.287Z,41.10
2022-08-19T22:41:35.622Z,41.40
2022-08-19T22:46:38.998Z,41.30
2022-08-19T22:52:09.428Z,42.00
2022-08-19T22:57:12.653Z,42.10
2022-08-19T23:02:20.231Z,41.40
2022-08-19T23:07:25.127Z,41.60
2022-08-19T23:12:30.657Z,41.50
2022-08-19T23:17:33.983Z,41.40
2022-08-19T23:22:41.738Z,41.40
2022-08-19T23:28:03.471Z,41.70
2022-08-19T23:33:14.422Z,41.60
2022-08-19T23:38:19.577Z,41.70
2022-08-19T23:43:24.650Z,42.00
2022-08-19T23:48:31.228Z,41.90
2022-08-19T23:53:37.047Z,42.00
2022-08-19T23:58:40.776Z,42.30
